sensor_id;sensor_type;location;lat;lon;timestamp;pressure;altitude;pressure_sealevel;temperature;humidity
76868;BME280;66168;45.478;11.060;2024-03-07T00:00:18;100859.24;;;11.49;69.31
76868;BME280;66168;45.478;11.060;2024-03-07T00:02:50;100861.38;;;11.49;69.15
76868;BME280;66168;45.478;11.060;2024-03-07T00:05:20;100860.14;;;11.49;69.10
76868;BME280;66168;45.478;11.060;2024-03-07T00:07:48;100861.48;;;11.48;68.97
76868;BME280;66168;45.478;11.060;2024-03-07T00:10:15;100866.95;;;11.47;68.81
76868;BME280;66168;45.478;11.060;2024-03-07T00:12:43;100868.02;;;11.47;68.97
76868;BME280;66168;45.478;11.060;2024-03-07T00:15:12;100864.39;;;11.46;68.44
76868;BME280;66168;45.478;11.060;2024-03-07T00:17:41;100865.14;;;11.43;68.84
76868;BME280;66168;45.478;11.060;2024-03-07T00:20:09;100864.51;;;11.41;68.36
76868;BME280;66168;45.478;11.060;2024-03-07T00:22:41;100860.46;;;11.33;68.83
76868;BME280;66168;45.478;11.060;2024-03-07T00:25:09;100861.49;;;11.24;69.38
76868;BME280;66168;45.478;11.060;2024-03-07T00:27:36;100864.98;;;11.15;70.19
76868;BME280;66168;45.478;11.060;2024-03-07T00:30:04;100867.39;;;11.11;70.61
76868;BME280;66168;45.478;11.060;2024-03-07T00:32:31;100864.52;;;11.11;70.83
76868;BME280;66168;45.478;11.060;2024-03-07T00:35:02;100867.08;;;11.12;70.58
76868;BME280;66168;45.478;11.060;2024-03-07T00:37:29;100863.15;;;11.14;71.00
76868;BME280;66168;45.478;11.060;2024-03-07T00:39:58;100861.53;;;11.17;70.94
76868;BME280;66168;45.478;11.060;2024-03-07T00:42:24;100857.29;;;11.20;70.38
76868;BME280;66168;45.478;11.060;2024-03-07T00:44:51;100858.32;;;11.22;69.41
76868;BME280;66168;45.478;11.060;2024-03-07T00:47:18;100860.70;;;11.25;69.19
76868;BME280;66168;45.478;11.060;2024-03-07T00:49:45;100863.38;;;11.27;69.30
76868;BME280;66168;45.478;11.060;2024-03-07T00:52:13;100861.51;;;11.28;69.59
76868;BME280;66168;45.478;11.060;2024-03-07T00:54:40;100862.34;;;11.29;69.67
76868;BME280;66168;45.478;11.060;2024-03-07T00:57:07;100864.84;;;11.29;69.76
76868;BME280;66168;45.478;11.060;2024-03-07T00:59:34;100864.85;;;11.26;70.40
76868;BME280;66168;45.478;11.060;2024-03-07T01:02:02;100860.88;;;11.23;69.99
76868;BME280;66168;45.478;11.060;2024-03-07T01:04:28;100862.04;;;11.21;69.75
76868;BME280;66168;45.478;11.060;2024-03-07T01:06:58;100862.87;;;11.18;70.06
76868;BME280;66168;45.478;11.060;2024-03-07T01:09:26;100860.98;;;11.16;70.20
76868;BME280;66168;45.478;11.060;2024-03-07T01:11:55;100860.92;;;11.13;70.14
76868;BME280;66168;45.478;11.060;2024-03-07T01:14:22;100859.73;;;11.11;70.06
76868;BME280;66168;45.478;11.060;2024-03-07T01:16:50;100858.52;;;11.08;70.39
76868;BME280;66168;45.478;11.060;2024-03-07T01:19:17;100856.27;;;11.04;70.25
76868;BME280;66168;45.478;11.060;2024-03-07T01:21:44;100853.98;;;11.01;70.60
76868;BME280;66168;45.478;11.060;2024-03-07T01:24:11;100856.23;;;10.99;70.64
76868;BME280;66168;45.478;11.060;2024-03-07T01:26:38;100856.22;;;10.97;70.55
76868;BME280;66168;45.478;11.060;2024-03-07T01:29:04;100854.52;;;10.96;70.25
76868;BME280;66168;45.478;11.060;2024-03-07T01:31:34;100851.95;;;10.95;70.11
76868;BME280;66168;45.478;11.060;2024-03-07T01:34:01;100847.52;;;10.92;70.21
76868;BME280;66168;45.478;11.060;2024-03-07T01:36:27;100845.55;;;10.91;70.32
76868;BME280;66168;45.478;11.060;2024-03-07T01:38:55;100846.48;;;10.91;70.29
76868;BME280;66168;45.478;11.060;2024-03-07T01:41:21;100842.54;;;10.90;70.07
76868;BME280;66168;45.478;11.060;2024-03-07T01:43:48;100843.26;;;10.87;70.07
76868;BME280;66168;45.478;11.060;2024-03-07T01:46:15;100844.66;;;10.84;70.15
76868;BME280;66168;45.478;11.060;2024-03-07T01:48:42;100841.05;;;10.81;69.97
76868;BME280;66168;45.478;11.060;2024-03-07T01:51:10;100836.98;;;10.79;69.94
76868;BME280;66168;45.478;11.060;2024-03-07T01:53:37;100834.17;;;10.77;70.24
76868;BME280;66168;45.478;11.060;2024-03-07T01:56:05;100835.67;;;10.77;70.03
76868;BME280;66168;45.478;11.060;2024-03-07T01:58:33;100834.04;;;10.75;69.71
76868;BME280;66168;45.478;11.060;2024-03-07T02:01:02;100832.45;;;10.75;69.39
76868;BME280;66168;45.478;11.060;2024-03-07T02:03:28;100828.93;;;10.75;69.26
76868;BME280;66168;45.478;11.060;2024-03-07T02:05:56;100829.02;;;10.76;69.17
76868;BME280;66168;45.478;11.060;2024-03-07T02:08:23;100822.77;;;10.76;69.01
76868;BME280;66168;45.478;11.060;2024-03-07T02:10:50;100823.90;;;10.76;68.81
76868;BME280;66168;45.478;11.060;2024-03-07T02:13:17;100821.40;;;10.76;68.77
76868;BME280;66168;45.478;11.060;2024-03-07T02:15:44;100818.85;;;10.75;68.70
76868;BME280;66168;45.478;11.060;2024-03-07T02:18:10;100815.92;;;10.76;68.66
76868;BME280;66168;45.478;11.060;2024-03-07T02:20:44;100815.60;;;10.75;68.65
76868;BME280;66168;45.478;11.060;2024-03-07T02:23:12;100811.83;;;10.76;68.59
76868;BME280;66168;45.478;11.060;2024-03-07T02:25:40;100810.98;;;10.76;68.51
76868;BME280;66168;45.478;11.060;2024-03-07T02:28:07;100806.80;;;10.76;68.30
76868;BME280;66168;45.478;11.060;2024-03-07T02:30:33;100804.95;;;10.77;68.33
76868;BME280;66168;45.478;11.060;2024-03-07T02:33:00;100805.84;;;10.79;68.10
76868;BME280;66168;45.478;11.060;2024-03-07T02:35:34;100805.64;;;10.79;68.19
76868;BME280;66168;45.478;11.060;2024-03-07T02:38:04;100804.16;;;10.79;68.09
76868;BME280;66168;45.478;11.060;2024-03-07T02:40:31;100809.05;;;10.80;67.96
76868;BME280;66168;45.478;11.060;2024-03-07T02:42:59;100806.89;;;10.80;68.18
76868;BME280;66168;45.478;11.060;2024-03-07T02:45:26;100807.76;;;10.80;68.09
76868;BME280;66168;45.478;11.060;2024-03-07T02:47:53;100805.13;;;10.82;67.79
76868;BME280;66168;45.478;11.060;2024-03-07T02:50:21;100803.12;;;10.82;67.80
76868;BME280;66168;45.478;11.060;2024-03-07T02:52:49;100800.09;;;10.84;67.85
76868;BME280;66168;45.478;11.060;2024-03-07T02:55:17;100796.98;;;10.84;67.93
76868;BME280;66168;45.478;11.060;2024-03-07T02:57:45;100795.77;;;10.84;67.89
76868;BME280;66168;45.478;11.060;2024-03-07T03:00:13;100795.20;;;10.85;67.96
76868;BME280;66168;45.478;11.060;2024-03-07T03:02:57;100794.48;;;10.85;67.77
76868;BME280;66168;45.478;11.060;2024-03-07T03:05:24;100794.30;;;10.85;68.03
76868;BME280;66168;45.478;11.060;2024-03-07T03:07:51;100795.08;;;10.84;67.84
76868;BME280;66168;45.478;11.060;2024-03-07T03:10:25;100792.20;;;10.84;67.65
76868;BME280;66168;45.478;11.060;2024-03-07T03:12:56;100793.64;;;10.84;67.57
76868;BME280;66168;45.478;11.060;2024-03-07T03:15:28;100791.73;;;10.83;67.97
76868;BME280;66168;45.478;11.060;2024-03-07T03:17:57;100792.98;;;10.79;68.31
76868;BME280;66168;45.478;11.060;2024-03-07T03:20:28;100790.71;;;10.76;68.39
76868;BME280;66168;45.478;11.060;2024-03-07T03:23:06;100790.23;;;10.72;68.45
76868;BME280;66168;45.478;11.060;2024-03-07T03:25:46;100794.23;;;10.70;68.67
76868;BME280;66168;45.478;11.060;2024-03-07T03:28:16;100794.40;;;10.69;68.42
76868;BME280;66168;45.478;11.060;2024-03-07T03:30:47;100797.44;;;10.67;68.29
76868;BME280;66168;45.478;11.060;2024-03-07T03:33:14;100800.97;;;10.66;68.39
76868;BME280;66168;45.478;11.060;2024-03-07T03:35:44;100807.32;;;10.58;68.28
76868;BME280;66168;45.478;11.060;2024-03-07T03:38:12;100805.40;;;10.43;68.34
76868;BME280;66168;45.478;11.060;2024-03-07T03:40:38;100808.02;;;10.31;68.91
76868;BME280;66168;45.478;11.060;2024-03-07T03:43:05;100804.66;;;10.23;69.48
76868;BME280;66168;45.478;11.060;2024-03-07T03:45:32;100807.26;;;10.20;70.02
76868;BME280;66168;45.478;11.060;2024-03-07T03:48:01;100809.52;;;10.21;69.92
76868;BME280;66168;45.478;11.060;2024-03-07T03:50:28;100802.85;;;10.20;70.17
76868;BME280;66168;45.478;11.060;2024-03-07T03:52:55;100802.31;;;10.21;70.33
76868;BME280;66168;45.478;11.060;2024-03-07T03:55:24;100806.35;;;10.19;70.31
76868;BME280;66168;45.478;11.060;2024-03-07T03:57:50;100806.59;;;10.11;70.44
76868;BME280;66168;45.478;11.060;2024-03-07T04:00:17;100806.65;;;10.02;70.56
76868;BME280;66168;45.478;11.060;2024-03-07T04:02:46;100804.10;;;9.99;70.67
76868;BME280;66168;45.478;11.060;2024-03-07T04:05:19;100802.14;;;10.01;71.02
76868;BME280;66168;45.478;11.060;2024-03-07T04:07:47;100803.46;;;10.03;70.62
76868;BME280;66168;45.478;11.060;2024-03-07T04:10:15;100805.02;;;10.05;70.60
76868;BME280;66168;45.478;11.060;2024-03-07T04:12:44;100807.23;;;10.09;70.81
76868;BME280;66168;45.478;11.060;2024-03-07T04:15:13;100805.17;;;10.14;70.64
76868;BME280;66168;45.478;11.060;2024-03-07T04:17:44;100805.20;;;10.18;70.23
76868;BME280;66168;45.478;11.060;2024-03-07T04:20:13;100799.20;;;10.23;70.33
76868;BME280;66168;45.478;11.060;2024-03-07T04:22:43;100797.58;;;10.26;70.71
76868;BME280;66168;45.478;11.060;2024-03-07T04:25:10;100799.23;;;10.29;70.81
76868;BME280;66168;45.478;11.060;2024-03-07T04:27:37;100799.45;;;10.31;70.64
76868;BME280;66168;45.478;11.060;2024-03-07T04:30:07;100800.45;;;10.34;70.77
76868;BME280;66168;45.478;11.060;2024-03-07T04:32:39;100800.94;;;10.36;70.70
76868;BME280;66168;45.478;11.060;2024-03-07T04:35:07;100802.54;;;10.32;71.08
76868;BME280;66168;45.478;11.060;2024-03-07T04:37:35;100807.05;;;10.30;71.16
76868;BME280;66168;45.478;11.060;2024-03-07T04:40:06;100805.00;;;10.29;71.27
76868;BME280;66168;45.478;11.060;2024-03-07T04:42:47;100804.88;;;10.30;70.80
76868;BME280;66168;45.478;11.060;2024-03-07T04:45:17;100808.48;;;10.30;70.45
76868;BME280;66168;45.478;11.060;2024-03-07T04:47:44;100809.52;;;10.29;70.32
76868;BME280;66168;45.478;11.060;2024-03-07T04:50:12;100810.59;;;10.25;70.18
76868;BME280;66168;45.478;11.060;2024-03-07T04:52:40;100809.35;;;10.19;70.57
76868;BME280;66168;45.478;11.060;2024-03-07T04:55:08;100809.88;;;10.11;71.26
76868;BME280;66168;45.478;11.060;2024-03-07T04:57:36;100806.88;;;10.06;70.87
76868;BME280;66168;45.478;11.060;2024-03-07T05:00:09;100812.66;;;10.05;71.00
76868;BME280;66168;45.478;11.060;2024-03-07T05:02:48;100813.13;;;10.02;71.37
76868;BME280;66168;45.478;11.060;2024-03-07T05:05:17;100819.61;;;9.98;71.55
76868;BME280;66168;45.478;11.060;2024-03-07T05:07:49;100823.06;;;9.97;71.95
76868;BME280;66168;45.478;11.060;2024-03-07T05:10:17;100823.74;;;9.99;71.85
76868;BME280;66168;45.478;11.060;2024-03-07T05:12:44;100826.91;;;9.99;71.52
76868;BME280;66168;45.478;11.060;2024-03-07T05:15:11;100831.92;;;9.97;71.65
76868;BME280;66168;45.478;11.060;2024-03-07T05:17:38;100835.25;;;9.90;71.82
76868;BME280;66168;45.478;11.060;2024-03-07T05:20:07;100836.55;;;9.81;72.28
76868;BME280;66168;45.478;11.060;2024-03-07T05:22:38;100837.84;;;9.74;72.29
76868;BME280;66168;45.478;11.060;2024-03-07T05:25:18;100842.19;;;9.69;72.91
76868;BME280;66168;45.478;11.060;2024-03-07T05:27:46;100847.10;;;9.64;72.86
76868;BME280;66168;45.478;11.060;2024-03-07T05:30:13;100848.15;;;9.59;72.82
76868;BME280;66168;45.478;11.060;2024-03-07T05:32:42;100848.48;;;9.58;73.00
76868;BME280;66168;45.478;11.060;2024-03-07T05:35:09;100848.59;;;9.62;72.99
76868;BME280;66168;45.478;11.060;2024-03-07T05:37:38;100851.31;;;9.66;72.76
76868;BME280;66168;45.478;11.060;2024-03-07T05:40:08;100850.98;;;9.71;72.94
76868;BME280;66168;45.478;11.060;2024-03-07T05:42:36;100851.27;;;9.75;73.08
76868;BME280;66168;45.478;11.060;2024-03-07T05:45:03;100850.66;;;9.78;72.89
76868;BME280;66168;45.478;11.060;2024-03-07T05:47:34;100856.30;;;9.82;72.50
76868;BME280;66168;45.478;11.060;2024-03-07T05:50:01;100857.57;;;9.83;72.76
76868;BME280;66168;45.478;11.060;2024-03-07T05:52:30;100860.52;;;9.85;72.79
76868;BME280;66168;45.478;11.060;2024-03-07T05:54:57;100865.30;;;9.87;72.71
76868;BME280;66168;45.478;11.060;2024-03-07T05:57:24;100865.21;;;9.88;72.74
76868;BME280;66168;45.478;11.060;2024-03-07T05:59:51;100871.84;;;9.90;72.65
76868;BME280;66168;45.478;11.060;2024-03-07T06:02:18;100872.91;;;9.92;72.59
76868;BME280;66168;45.478;11.060;2024-03-07T06:04:47;100869.61;;;9.93;72.69
76868;BME280;66168;45.478;11.060;2024-03-07T06:07:14;100867.67;;;9.94;72.63
76868;BME280;66168;45.478;11.060;2024-03-07T06:09:41;100868.83;;;9.97;72.60
76868;BME280;66168;45.478;11.060;2024-03-07T06:12:08;100867.98;;;9.99;72.45
76868;BME280;66168;45.478;11.060;2024-03-07T06:14:48;100871.70;;;9.99;72.34
76868;BME280;66168;45.478;11.060;2024-03-07T06:17:16;100874.47;;;9.98;72.38
76868;BME280;66168;45.478;11.060;2024-03-07T06:19:46;100880.21;;;9.99;72.34
76868;BME280;66168;45.478;11.060;2024-03-07T06:22:14;100880.80;;;10.01;72.54
76868;BME280;66168;45.478;11.060;2024-03-07T06:24:41;100879.57;;;10.02;72.64
76868;BME280;66168;45.478;11.060;2024-03-07T06:27:09;100881.48;;;10.04;72.49
76868;BME280;66168;45.478;11.060;2024-03-07T06:29:43;100880.58;;;10.08;72.45
76868;BME280;66168;45.478;11.060;2024-03-07T06:32:10;100880.64;;;10.10;72.35
76868;BME280;66168;45.478;11.060;2024-03-07T06:34:38;100877.73;;;10.13;72.49
76868;BME280;66168;45.478;11.060;2024-03-07T06:37:05;100874.49;;;10.16;72.70
76868;BME280;66168;45.478;11.060;2024-03-07T06:39:32;100873.77;;;10.20;72.63
76868;BME280;66168;45.478;11.060;2024-03-07T06:41:59;100876.02;;;10.24;72.82
76868;BME280;66168;45.478;11.060;2024-03-07T06:44:27;100879.66;;;10.28;72.72
76868;BME280;66168;45.478;11.060;2024-03-07T06:46:54;100879.23;;;10.30;72.97
76868;BME280;66168;45.478;11.060;2024-03-07T06:49:21;100878.63;;;10.32;72.89
76868;BME280;66168;45.478;11.060;2024-03-07T06:51:48;100879.25;;;10.34;72.62
76868;BME280;66168;45.478;11.060;2024-03-07T06:54:14;100874.63;;;10.37;72.64
76868;BME280;66168;45.478;11.060;2024-03-07T06:56:41;100876.49;;;10.41;72.63
76868;BME280;66168;45.478;11.060;2024-03-07T06:59:10;100876.36;;;10.46;72.81
76868;BME280;66168;45.478;11.060;2024-03-07T07:01:37;100876.80;;;10.48;72.62
76868;BME280;66168;45.478;11.060;2024-03-07T07:04:04;100877.27;;;10.50;72.57
76868;BME280;66168;45.478;11.060;2024-03-07T07:06:31;100872.57;;;10.52;72.56
76868;BME280;66168;45.478;11.060;2024-03-07T07:08:58;100874.76;;;10.57;72.23
76868;BME280;66168;45.478;11.060;2024-03-07T07:11:26;100875.59;;;10.59;71.77
76868;BME280;66168;45.478;11.060;2024-03-07T07:14:01;100880.17;;;10.59;72.12
76868;BME280;66168;45.478;11.060;2024-03-07T07:16:29;100878.36;;;10.59;72.21
76868;BME280;66168;45.478;11.060;2024-03-07T07:18:57;100880.13;;;10.63;72.24
76868;BME280;66168;45.478;11.060;2024-03-07T07:21:24;100885.67;;;10.67;71.90
76868;BME280;66168;45.478;11.060;2024-03-07T07:23:51;100884.82;;;10.64;71.90
76868;BME280;66168;45.478;11.060;2024-03-07T07:26:18;100888.13;;;10.62;72.02
76868;BME280;66168;45.478;11.060;2024-03-07T07:28:44;100887.09;;;10.59;72.45
76868;BME280;66168;45.478;11.060;2024-03-07T07:31:11;100887.95;;;10.59;72.49
76868;BME280;66168;45.478;11.060;2024-03-07T07:33:38;100890.51;;;10.64;72.14
76868;BME280;66168;45.478;11.060;2024-03-07T07:36:05;100891.18;;;10.69;71.85
76868;BME280;66168;45.478;11.060;2024-03-07T07:38:32;100890.85;;;10.72;71.90
76868;BME280;66168;45.478;11.060;2024-03-07T07:40:59;100891.12;;;10.71;72.71
76868;BME280;66168;45.478;11.060;2024-03-07T07:43:27;100891.85;;;10.72;73.06
76868;BME280;66168;45.478;11.060;2024-03-07T07:46:08;100892.98;;;10.72;73.19
76868;BME280;66168;45.478;11.060;2024-03-07T07:48:35;100894.23;;;10.70;73.38
76868;BME280;66168;45.478;11.060;2024-03-07T07:51:02;100896.64;;;10.72;73.11
76868;BME280;66168;45.478;11.060;2024-03-07T07:53:32;100902.63;;;10.76;72.89
76868;BME280;66168;45.478;11.060;2024-03-07T07:55:59;100899.25;;;10.77;72.96
76868;BME280;66168;45.478;11.060;2024-03-07T07:58:26;100896.95;;;10.81;73.02
76868;BME280;66168;45.478;11.060;2024-03-07T08:00:53;100897.82;;;10.87;73.20
76868;BME280;66168;45.478;11.060;2024-03-07T08:03:20;100896.04;;;10.92;73.19
76868;BME280;66168;45.478;11.060;2024-03-07T08:05:49;100897.21;;;10.95;73.19
76868;BME280;66168;45.478;11.060;2024-03-07T08:08:16;100900.58;;;10.98;73.01
76868;BME280;66168;45.478;11.060;2024-03-07T08:10:45;100898.17;;;11.01;72.71
76868;BME280;66168;45.478;11.060;2024-03-07T08:13:13;100903.64;;;11.06;72.88
76868;BME280;66168;45.478;11.060;2024-03-07T08:15:40;100900.20;;;11.10;72.57
76868;BME280;66168;45.478;11.060;2024-03-07T08:18:09;100901.88;;;11.14;72.84
76868;BME280;66168;45.478;11.060;2024-03-07T08:20:37;100899.48;;;11.19;72.85
76868;BME280;66168;45.478;11.060;2024-03-07T08:23:06;100900.76;;;11.27;73.30
76868;BME280;66168;45.478;11.060;2024-03-07T08:25:33;100899.06;;;11.30;73.16
76868;BME280;66168;45.478;11.060;2024-03-07T08:28:00;100904.20;;;11.35;72.92
76868;BME280;66168;45.478;11.060;2024-03-07T08:30:26;100905.50;;;11.41;72.56
76868;BME280;66168;45.478;11.060;2024-03-07T08:32:57;100908.02;;;11.45;72.44
76868;BME280;66168;45.478;11.060;2024-03-07T08:35:25;100902.17;;;11.48;72.27
76868;BME280;66168;45.478;11.060;2024-03-07T08:37:54;100905.08;;;11.52;72.79
76868;BME280;66168;45.478;11.060;2024-03-07T08:40:28;100906.92;;;11.55;72.37
76868;BME280;66168;45.478;11.060;2024-03-07T08:43:01;100908.95;;;11.55;72.46
76868;BME280;66168;45.478;11.060;2024-03-07T08:45:29;100910.26;;;11.61;73.00
76868;BME280;66168;45.478;11.060;2024-03-07T08:47:57;100912.75;;;11.67;72.62
76868;BME280;66168;45.478;11.060;2024-03-07T08:50:26;100912.02;;;11.66;71.84
76868;BME280;66168;45.478;11.060;2024-03-07T08:52:54;100914.30;;;11.63;71.55
76868;BME280;66168;45.478;11.060;2024-03-07T08:55:25;100918.41;;;11.56;70.93
76868;BME280;66168;45.478;11.060;2024-03-07T08:57:53;100917.89;;;11.53;71.26
76868;BME280;66168;45.478;11.060;2024-03-07T09:00:20;100919.08;;;11.51;71.72
76868;BME280;66168;45.478;11.060;2024-03-07T09:03:01;100921.83;;;11.53;72.09
76868;BME280;66168;45.478;11.060;2024-03-07T09:05:30;100918.80;;;11.60;71.87
76868;BME280;66168;45.478;11.060;2024-03-07T09:08:01;100917.73;;;11.72;71.25
76868;BME280;66168;45.478;11.060;2024-03-07T09:10:29;100918.99;;;11.83;70.89
76868;BME280;66168;45.478;11.060;2024-03-07T09:12:58;100919.56;;;11.94;71.02
76868;BME280;66168;45.478;11.060;2024-03-07T09:15:26;100922.77;;;12.05;70.42
76868;BME280;66168;45.478;11.060;2024-03-07T09:17:54;100921.93;;;12.10;69.17
76868;BME280;66168;45.478;11.060;2024-03-07T09:20:21;100923.63;;;12.11;68.71
76868;BME280;66168;45.478;11.060;2024-03-07T09:22:48;100922.77;;;12.17;69.17
76868;BME280;66168;45.478;11.060;2024-03-07T09:25:16;100925.38;;;12.25;68.79
76868;BME280;66168;45.478;11.060;2024-03-07T09:27:44;100927.05;;;12.27;66.97
76868;BME280;66168;45.478;11.060;2024-03-07T09:30:11;100928.52;;;12.25;67.32
76868;BME280;66168;45.478;11.060;2024-03-07T09:32:42;100928.21;;;12.21;68.37
76868;BME280;66168;45.478;11.060;2024-03-07T09:35:11;100933.31;;;12.19;69.40
76868;BME280;66168;45.478;11.060;2024-03-07T09:37:42;100931.22;;;12.24;69.80
76868;BME280;66168;45.478;11.060;2024-03-07T09:40:11;100929.89;;;12.27;69.93
76868;BME280;66168;45.478;11.060;2024-03-07T09:45:15;100934.23;;;12.25;69.14
76868;BME280;66168;45.478;11.060;2024-03-07T09:47:49;100933.86;;;12.25;69.33
76868;BME280;66168;45.478;11.060;2024-03-07T09:50:20;100929.95;;;12.25;69.64
76868;BME280;66168;45.478;11.060;2024-03-07T09:52:54;100933.80;;;12.30;70.18
76868;BME280;66168;45.478;11.060;2024-03-07T09:55:22;100936.70;;;12.33;69.93
76868;BME280;66168;45.478;11.060;2024-03-07T09:57:53;100937.73;;;12.38;70.29
76868;BME280;66168;45.478;11.060;2024-03-07T10:00:24;100935.65;;;12.46;69.93
76868;BME280;66168;45.478;11.060;2024-03-07T10:05:31;100934.64;;;12.57;68.69
76868;BME280;66168;45.478;11.060;2024-03-07T10:08:00;100938.17;;;12.52;68.67
76868;BME280;66168;45.478;11.060;2024-03-07T10:10:27;100936.48;;;12.57;69.07
76868;BME280;66168;45.478;11.060;2024-03-07T10:12:57;100940.40;;;12.63;69.19
76868;BME280;66168;45.478;11.060;2024-03-07T10:15:30;100942.89;;;12.64;68.92
76868;BME280;66168;45.478;11.060;2024-03-07T10:17:58;100944.46;;;12.66;69.55
76868;BME280;66168;45.478;11.060;2024-03-07T10:20:27;100946.27;;;12.67;69.90
76868;BME280;66168;45.478;11.060;2024-03-07T10:22:55;100944.86;;;12.70;70.36
76868;BME280;66168;45.478;11.060;2024-03-07T10:25:24;100945.75;;;12.69;71.24
76868;BME280;66168;45.478;11.060;2024-03-07T10:27:53;100949.52;;;12.65;71.15
76868;BME280;66168;45.478;11.060;2024-03-07T10:30:21;100951.80;;;12.70;71.27
76868;BME280;66168;45.478;11.060;2024-03-07T10:32:56;100949.17;;;12.76;71.07
76868;BME280;66168;45.478;11.060;2024-03-07T10:35:25;100950.46;;;12.85;70.77
76868;BME280;66168;45.478;11.060;2024-03-07T10:37:53;100950.61;;;12.92;70.32
76868;BME280;66168;45.478;11.060;2024-03-07T10:40:22;100949.38;;;12.98;69.75
76868;BME280;66168;45.478;11.060;2024-03-07T10:42:56;100948.06;;;13.01;69.19
76868;BME280;66168;45.478;11.060;2024-03-07T10:45:28;100945.64;;;13.03;68.84
76868;BME280;66168;45.478;11.060;2024-03-07T10:47:58;100946.35;;;13.11;69.31
76868;BME280;66168;45.478;11.060;2024-03-07T10:56:23;100943.38;;;13.35;69.19
76868;BME280;66168;45.478;11.060;2024-03-07T10:59:01;100941.20;;;13.36;67.73
76868;BME280;66168;45.478;11.060;2024-03-07T11:01:38;100937.11;;;13.43;68.75
76868;BME280;66168;45.478;11.060;2024-03-07T11:04:07;100937.25;;;13.48;67.18
76868;BME280;66168;45.478;11.060;2024-03-07T11:06:34;100936.45;;;13.48;67.65
76868;BME280;66168;45.478;11.060;2024-03-07T11:09:03;100936.73;;;13.52;67.26
76868;BME280;66168;45.478;11.060;2024-03-07T11:11:39;100933.56;;;13.56;67.46
76868;BME280;66168;45.478;11.060;2024-03-07T11:14:11;100934.90;;;13.53;66.97
76868;BME280;66168;45.478;11.060;2024-03-07T11:16:40;100934.83;;;13.47;65.82
76868;BME280;66168;45.478;11.060;2024-03-07T11:19:24;100931.92;;;13.46;65.60
76868;BME280;66168;45.478;11.060;2024-03-07T11:21:55;100931.80;;;13.48;65.63
76868;BME280;66168;45.478;11.060;2024-03-07T11:24:27;100929.92;;;13.46;62.13
76868;BME280;66168;45.478;11.060;2024-03-07T11:27:03;100926.34;;;13.49;64.93
76868;BME280;66168;45.478;11.060;2024-03-07T11:32:11;100926.96;;;13.50;65.03
76868;BME280;66168;45.478;11.060;2024-03-07T11:34:38;100922.35;;;13.53;65.24
76868;BME280;66168;45.478;11.060;2024-03-07T11:37:08;100922.44;;;13.58;66.33
76868;BME280;66168;45.478;11.060;2024-03-07T11:39:46;100920.79;;;13.62;65.87
76868;BME280;66168;45.478;11.060;2024-03-07T11:42:20;100918.94;;;13.60;64.75
76868;BME280;66168;45.478;11.060;2024-03-07T11:44:49;100912.84;;;13.66;65.18
76868;BME280;66168;45.478;11.060;2024-03-07T11:47:18;100908.85;;;13.69;64.49
76868;BME280;66168;45.478;11.060;2024-03-07T11:49:45;100904.83;;;13.86;64.02
76868;BME280;66168;45.478;11.060;2024-03-07T11:52:15;100902.70;;;14.04;62.36
76868;BME280;66168;45.478;11.060;2024-03-07T11:54:43;100900.13;;;14.22;63.23
76868;BME280;66168;45.478;11.060;2024-03-07T11:57:17;100899.59;;;14.38;62.94
76868;BME280;66168;45.478;11.060;2024-03-07T12:00:00;100897.39;;;14.51;61.78
76868;BME280;66168;45.478;11.060;2024-03-07T12:02:38;100895.45;;;14.45;59.42
76868;BME280;66168;45.478;11.060;2024-03-07T12:05:07;100892.73;;;14.55;58.11
76868;BME280;66168;45.478;11.060;2024-03-07T12:07:34;100884.66;;;14.73;57.67
76868;BME280;66168;45.478;11.060;2024-03-07T12:10:02;100883.59;;;14.81;55.93
76868;BME280;66168;45.478;11.060;2024-03-07T12:12:33;100879.65;;;14.86;56.70
76868;BME280;66168;45.478;11.060;2024-03-07T12:15:00;100877.49;;;14.95;56.86
76868;BME280;66168;45.478;11.060;2024-03-07T12:17:36;100872.86;;;15.10;55.58
76868;BME280;66168;45.478;11.060;2024-03-07T12:20:03;100872.72;;;15.24;56.06
76868;BME280;66168;45.478;11.060;2024-03-07T12:22:51;100870.09;;;15.49;54.04
76868;BME280;66168;45.478;11.060;2024-03-07T12:25:20;100869.09;;;15.59;54.11
76868;BME280;66168;45.478;11.060;2024-03-07T12:28:02;100870.82;;;15.45;52.87
76868;BME280;66168;45.478;11.060;2024-03-07T12:30:33;100866.48;;;15.35;54.63
76868;BME280;66168;45.478;11.060;2024-03-07T12:33:01;100864.56;;;15.28;55.29
76868;BME280;66168;45.478;11.060;2024-03-07T12:35:31;100857.40;;;15.42;55.22
76868;BME280;66168;45.478;11.060;2024-03-07T12:37:59;100853.68;;;15.63;56.19
76868;BME280;66168;45.478;11.060;2024-03-07T12:40:26;100849.92;;;15.94;54.41
76868;BME280;66168;45.478;11.060;2024-03-07T12:42:56;100845.27;;;16.20;54.68
76868;BME280;66168;45.478;11.060;2024-03-07T12:45:23;100842.02;;;16.50;54.50
76868;BME280;66168;45.478;11.060;2024-03-07T12:47:53;100841.92;;;16.66;52.34
76868;BME280;66168;45.478;11.060;2024-03-07T12:50:21;100829.61;;;16.80;53.01
76868;BME280;66168;45.478;11.060;2024-03-07T12:52:48;100829.42;;;16.87;52.11
76868;BME280;66168;45.478;11.060;2024-03-07T12:55:17;100825.58;;;16.76;51.92
76868;BME280;66168;45.478;11.060;2024-03-07T12:57:45;100826.48;;;16.58;50.80
76868;BME280;66168;45.478;11.060;2024-03-07T13:00:12;100820.78;;;16.48;51.22
76868;BME280;66168;45.478;11.060;2024-03-07T13:02:47;100816.42;;;16.41;51.16